Terminal Aerodrome Forecast
Issued by NWS Wilmington, OH

Current Version | Previous Version | Graphics & Text | Print | Product List | Glossary On
Versions: 1 2 3 4 5 6 7 8 9 10 11 12 13 14 15 16 17 18 19 20 21
911
FTUS41 KILN 190538
TAFCMH
TAF
KCMH 190538Z 1906/2006 24006KT P6SM OVC008
      TEMPO 1909/1913 OVC012
     FM191300 14004KT P6SM OVC250
     FM191800 13006KT P6SM OVC150
     FM200500 09006KT 4SM -RA BR OVC050=

USA.gov is the U.S. government's official web portal to all federal, state and local government web resources and services.